createdAt,value
2017-06-24T00:00:27.392Z,99.99
2017-06-24T00:01:27.389Z,99.99
2017-06-24T00:02:27.704Z,99.99
2017-06-24T00:03:27.698Z,99.99
2017-06-24T00:04:27.699Z,99.99
2017-06-24T00:05:27.715Z,99.99
2017-06-24T00:06:27.689Z,99.99
2017-06-24T00:07:27.362Z,99.99
2017-06-24T00:08:27.355Z,99.99
2017-06-24T00:09:27.680Z,99.99
2017-06-24T00:10:27.351Z,99.99
2017-06-24T00:11:27.662Z,99.99
2017-06-24T00:12:27.663Z,99.99
2017-06-24T00:13:27.664Z,99.99
2017-06-24T00:14:27.669Z,99.99
2017-06-24T00:15:27.330Z,99.99
2017-06-24T00:16:27.645Z,99.99
2017-06-24T00:17:27.642Z,99.99
2017-06-24T00:18:27.639Z,99.99
2017-06-24T00:19:27.631Z,99.99
2017-06-24T00:20:27.628Z,99.99
2017-06-24T00:21:27.631Z,99.99
2017-06-24T00:22:27.618Z,99.99
2017-06-24T00:23:27.294Z,99.99
2017-06-24T00:24:27.610Z,99.99
2017-06-24T00:25:27.608Z,99.99
2017-06-24T00:26:27.622Z,99.99
2017-06-24T00:27:27.594Z,99.99
2017-06-24T00:28:27.593Z,99.99
2017-06-24T00:29:27.266Z,99.99
2017-06-24T00:30:27.584Z,99.99
2017-06-24T00:31:27.260Z,99.99
2017-06-24T00:32:27.574Z,99.99
2017-06-24T00:33:27.256Z,99.99
2017-06-24T00:34:27.246Z,99.99
2017-06-24T00:35:27.560Z,99.99
2017-06-24T00:36:27.560Z,99.99
2017-06-24T00:37:27.554Z,99.99
2017-06-24T00:38:27.227Z,99.99
2017-06-24T00:39:27.543Z,99.99
2017-06-24T00:40:27.538Z,99.99
2017-06-24T00:41:27.213Z,99.99
2017-06-24T00:42:27.534Z,99.99
2017-06-24T00:43:27.217Z,99.99
2017-06-24T00:44:27.524Z,99.99
2017-06-24T00:45:27.520Z,99.99
2017-06-24T00:46:27.513Z,99.99
2017-06-24T00:47:27.511Z,99.99
2017-06-24T00:48:27.199Z,99.99
2017-06-24T00:49:27.180Z,99.99
2017-06-24T00:50:27.495Z,99.99
2017-06-24T00:51:27.490Z,99.99
2017-06-24T00:52:27.488Z,99.99
2017-06-24T00:53:27.481Z,99.99
2017-06-24T00:54:27.176Z,99.99
2017-06-24T00:55:27.155Z,99.99
2017-06-24T00:56:27.475Z,99.99
2017-06-24T00:57:27.467Z,99.99
2017-06-24T00:58:27.465Z,99.99
2017-06-24T00:59:27.459Z,99.99
2017-06-24T01:00:27.454Z,99.99
2017-06-24T01:01:27.127Z,99.99
2017-06-24T01:02:27.445Z,99.99
2017-06-24T01:03:27.118Z,99.99
2017-06-24T01:04:27.116Z,99.99
2017-06-24T01:05:27.429Z,99.99
2017-06-24T01:06:27.115Z,99.99
2017-06-24T01:07:27.422Z,99.99
2017-06-24T01:08:27.420Z,99.99
2017-06-24T01:09:27.092Z,99.99
2017-06-24T01:10:27.091Z,99.99
2017-06-24T01:11:27.405Z,99.99
2017-06-24T01:12:27.076Z,99.99
2017-06-24T01:13:27.073Z,99.99
2017-06-24T01:14:27.389Z,99.99
2017-06-24T01:15:27.422Z,99.99
2017-06-24T01:16:27.411Z,99.99
2017-06-24T01:17:27.378Z,99.99
2017-06-24T01:18:27.056Z,99.99
2017-06-24T01:19:27.366Z,99.99
2017-06-24T01:20:27.367Z,99.99
2017-06-24T01:21:27.363Z,99.99
2017-06-24T01:22:27.356Z,99.99
2017-06-24T01:23:27.034Z,99.99
2017-06-24T01:24:27.350Z,99.99
2017-06-24T01:25:27.344Z,99.99
2017-06-24T01:26:27.350Z,99.99
2017-06-24T01:27:27.014Z,99.99
2017-06-24T01:28:27.012Z,99.99
2017-06-24T01:29:27.329Z,99.99
2017-06-24T01:30:27.323Z,99.99
2017-06-24T01:31:27.000Z,99.99
2017-06-24T01:32:27.315Z,99.99
2017-06-24T01:33:27.312Z,99.99
2017-06-24T01:34:27.305Z,99.99
2017-06-24T01:35:26.980Z,99.99
2017-06-24T01:36:26.990Z,99.99
2017-06-24T01:37:27.303Z,99.99
2017-06-24T01:38:27.289Z,99.99
2017-06-24T01:39:26.970Z,99.99
2017-06-24T01:40:27.281Z,99.99
2017-06-24T01:41:27.277Z,99.99
2017-06-24T01:42:27.274Z,99.99
2017-06-24T01:43:27.267Z,99.99
2017-06-24T01:44:27.269Z,99.99
2017-06-24T01:45:26.938Z,99.99
2017-06-24T01:46:27.276Z,99.99
2017-06-24T01:47:27.250Z,99.99
2017-06-24T01:48:27.247Z,99.99
2017-06-24T01:49:27.244Z,99.99
2017-06-24T01:50:27.238Z,99.99
2017-06-24T01:51:27.232Z,99.99
2017-06-24T01:52:27.227Z,99.99
2017-06-24T01:53:27.227Z,99.99
2017-06-24T01:54:26.902Z,99.99
2017-06-24T01:55:26.895Z,99.99
2017-06-24T01:56:26.907Z,99.99
2017-06-24T01:57:27.207Z,99.99
2017-06-24T01:58:27.202Z,99.99
2017-06-24T01:59:27.197Z,99.99
2017-06-24T02:00:27.199Z,99.99
2017-06-24T02:01:27.195Z,99.99
2017-06-24T02:02:26.867Z,99.99
2017-06-24T02:03:27.182Z,99.99
2017-06-24T02:04:26.857Z,99.99
2017-06-24T02:05:26.865Z,99.99
2017-06-24T02:06:26.847Z,99.99
2017-06-24T02:07:27.166Z,99.99
2017-06-24T02:08:27.163Z,99.99
2017-06-24T02:09:27.158Z,99.99
2017-06-24T02:10:27.154Z,99.99
2017-06-24T02:11:26.852Z,99.99
2017-06-24T02:12:26.822Z,99.99
2017-06-24T02:13:26.837Z,99.99
2017-06-24T02:14:26.818Z,99.99
2017-06-24T02:15:27.141Z,99.99
2017-06-24T02:16:27.131Z,99.99
2017-06-24T02:17:27.124Z,99.99
2017-06-24T02:18:27.119Z,99.99
2017-06-24T02:19:27.115Z,99.99
2017-06-24T02:20:27.124Z,99.99
2017-06-24T02:21:27.113Z,99.99
2017-06-24T02:22:27.115Z,99.99
2017-06-24T02:23:27.102Z,99.99
2017-06-24T02:24:27.094Z,99.99
2017-06-24T02:25:27.091Z,99.99
2017-06-24T02:26:27.086Z,99.99
2017-06-24T02:27:27.086Z,99.99
2017-06-24T02:28:27.080Z,99.99
2017-06-24T02:29:27.075Z,99.99
2017-06-24T02:30:27.072Z,99.99
2017-06-24T02:31:27.089Z,99.99
2017-06-24T02:32:27.062Z,99.99
2017-06-24T02:33:27.059Z,99.99
2017-06-24T02:34:26.737Z,99.99
2017-06-24T02:35:27.050Z,99.99
2017-06-24T02:36:26.728Z,99.99
2017-06-24T02:37:26.740Z,99.99
2017-06-24T02:38:27.047Z,99.99
2017-06-24T02:39:27.036Z,99.99
2017-06-24T02:40:27.031Z,99.99
2017-06-24T02:41:27.038Z,99.99
2017-06-24T02:42:27.033Z,99.99
2017-06-24T02:43:27.020Z,99.99
2017-06-24T02:44:27.016Z,99.99
2017-06-24T02:45:27.022Z,99.99
2017-06-24T02:46:27.008Z,99.99
2017-06-24T02:47:26.704Z,99.99
2017-06-24T02:48:26.679Z,99.99
2017-06-24T02:49:27.021Z,99.99
2017-06-24T02:50:27.012Z,99.99
2017-06-24T02:51:26.990Z,99.99
2017-06-24T02:52:26.665Z,99.99
2017-06-24T02:53:26.989Z,99.99
2017-06-24T02:54:26.979Z,99.99
2017-06-24T02:55:26.971Z,99.99
2017-06-24T02:56:26.969Z,99.99
2017-06-24T02:57:26.668Z,99.99
2017-06-24T02:58:26.961Z,99.99
2017-06-24T02:59:26.636Z,99.99
2017-06-24T03:00:26.953Z,99.99
2017-06-24T03:01:26.949Z,99.99
2017-06-24T03:02:26.956Z,99.99
2017-06-24T03:03:26.944Z,99.99
2017-06-24T03:04:26.940Z,99.99
2017-06-24T03:05:26.949Z,99.99
2017-06-24T03:06:26.929Z,99.99
2017-06-24T03:07:26.937Z,99.99
2017-06-24T03:08:26.923Z,99.99
2017-06-24T03:09:26.918Z,99.99
2017-06-24T03:10:26.945Z,99.99
2017-06-24T03:11:26.913Z,99.99
2017-06-24T03:12:26.914Z,99.99
2017-06-24T03:13:26.937Z,99.99
2017-06-24T03:14:26.901Z,99.99
2017-06-24T03:15:26.907Z,99.99
2017-06-24T03:16:26.600Z,99.99
2017-06-24T03:17:26.886Z,99.99
2017-06-24T03:18:26.562Z,99.99
2017-06-24T03:19:26.879Z,99.99
2017-06-24T03:20:26.872Z,99.99
2017-06-24T03:21:26.868Z,99.99
2017-06-24T03:22:26.864Z,99.99
2017-06-24T03:23:26.552Z,99.99
2017-06-24T03:24:26.536Z,99.99
2017-06-24T03:25:26.851Z,99.99
2017-06-24T03:26:26.846Z,99.99
2017-06-24T03:27:26.861Z,99.99
2017-06-24T03:28:26.840Z,99.99
2017-06-24T03:29:26.514Z,99.99
2017-06-24T03:30:26.831Z,99.99
2017-06-24T03:31:26.826Z,99.99
2017-06-24T03:32:26.823Z,99.99
2017-06-24T03:33:26.511Z,99.99
2017-06-24T03:34:26.815Z,99.99
2017-06-24T03:35:26.809Z,99.99
2017-06-24T03:36:26.819Z,99.99
2017-06-24T03:37:26.802Z,99.99
2017-06-24T03:38:26.796Z,99.99
2017-06-24T03:39:26.814Z,99.99
2017-06-24T03:40:26.468Z,99.99
2017-06-24T03:41:26.782Z,99.99
2017-06-24T03:42:26.458Z,99.99
2017-06-24T03:43:26.463Z,99.99
2017-06-24T03:44:26.449Z,99.99
2017-06-24T03:45:26.782Z,99.99
2017-06-24T03:46:26.762Z,99.99
2017-06-24T03:47:26.769Z,99.99
2017-06-24T03:48:26.753Z,99.99
2017-06-24T03:49:26.429Z,99.99
2017-06-24T03:50:26.743Z,99.99
2017-06-24T03:51:26.740Z,99.99
2017-06-24T03:52:26.415Z,99.99
2017-06-24T03:53:26.415Z,99.99
2017-06-24T03:54:26.406Z,99.99
2017-06-24T03:55:26.724Z,99.99
2017-06-24T03:56:26.735Z,99.99
2017-06-24T03:57:26.393Z,99.99
2017-06-24T03:58:26.711Z,99.99
2017-06-24T03:59:26.708Z,99.99
2017-06-24T04:00:26.701Z,99.99
2017-06-24T04:01:26.699Z,99.99
2017-06-24T04:02:26.373Z,99.99
2017-06-24T04:03:26.687Z,99.99
2017-06-24T04:04:26.363Z,99.99
2017-06-24T04:05:26.361Z,99.99
2017-06-24T04:06:26.355Z,99.99
2017-06-24T04:07:26.670Z,99.99
2017-06-24T04:08:26.665Z,99.99
2017-06-24T04:09:26.342Z,99.99
2017-06-24T04:10:26.663Z,99.99
2017-06-24T04:11:26.653Z,99.99
2017-06-24T04:12:26.650Z,99.99
2017-06-24T04:13:26.648Z,99.99
2017-06-24T04:14:26.641Z,99.99
2017-06-24T04:15:26.635Z,99.99
2017-06-24T04:16:26.650Z,99.99
2017-06-24T04:17:26.310Z,99.99
2017-06-24T04:18:26.624Z,99.99
2017-06-24T04:19:26.299Z,99.99
2017-06-24T04:20:26.297Z,99.99
2017-06-24T04:21:26.613Z,99.99
2017-06-24T04:22:26.608Z,99.99
2017-06-24T04:23:26.285Z,99.99
2017-06-24T04:24:26.279Z,99.99
2017-06-24T04:25:26.278Z,99.99
2017-06-24T04:26:26.288Z,99.99
2017-06-24T04:27:26.286Z,99.99
2017-06-24T04:28:26.584Z,99.99
2017-06-24T04:29:26.582Z,99.99
2017-06-24T04:30:26.583Z,99.99
2017-06-24T04:31:26.569Z,99.99
2017-06-24T04:32:26.250Z,99.99
2017-06-24T04:33:26.561Z,99.99
2017-06-24T04:34:26.558Z,99.99
2017-06-24T04:35:26.553Z,99.99
2017-06-24T04:36:26.549Z,99.99
2017-06-24T04:37:26.226Z,99.99
2017-06-24T04:38:26.221Z,99.99
2017-06-24T04:39:26.221Z,99.99
2017-06-24T04:40:26.216Z,99.99
2017-06-24T04:41:26.533Z,99.99
2017-06-24T04:42:26.526Z,99.99
2017-06-24T04:43:26.206Z,99.99
2017-06-24T04:44:26.519Z,99.99
2017-06-24T04:45:26.197Z,99.99
2017-06-24T04:46:26.517Z,99.99
2017-06-24T04:47:26.518Z,99.99
2017-06-24T04:48:26.524Z,99.99
2017-06-24T04:49:26.180Z,99.99
2017-06-24T04:50:26.500Z,98.67
2017-06-24T04:51:26.495Z,99.24
2017-06-24T04:52:26.493Z,98.28
2017-06-24T04:53:26.489Z,97.66
2017-06-24T04:54:26.483Z,98.71
2017-06-24T04:55:26.477Z,97.56
2017-06-24T04:56:26.476Z,97.66
2017-06-24T04:57:26.155Z,97.8
2017-06-24T04:58:26.469Z,98.14
2017-06-24T04:59:26.471Z,98.38
2017-06-24T05:00:26.142Z,99.19
2017-06-24T05:01:26.140Z,99.1
2017-06-24T05:02:26.133Z,97.85
2017-06-24T05:03:26.457Z,98.19
2017-06-24T05:04:26.142Z,99.63
2017-06-24T05:05:26.448Z,99.53
2017-06-24T05:06:26.119Z,98.38
2017-06-24T05:07:26.439Z,99.24
2017-06-24T05:08:26.438Z,98.1
2017-06-24T05:09:26.113Z,97.9
2017-06-24T05:10:26.132Z,97.23
2017-06-24T05:11:26.133Z,96.75
2017-06-24T05:12:26.104Z,96.66
2017-06-24T05:13:26.420Z,97.14
2017-06-24T05:14:26.439Z,96.66
2017-06-24T05:15:26.414Z,96.27
2017-06-24T05:16:26.411Z,96.18
2017-06-24T05:17:26.408Z,94.89
2017-06-24T05:18:26.405Z,94.4
2017-06-24T05:19:26.403Z,93.06
2017-06-24T05:20:26.398Z,92.58
2017-06-24T05:21:26.392Z,92.68
2017-06-24T05:22:26.406Z,91.34
2017-06-24T05:23:26.410Z,91.24
2017-06-24T05:24:26.387Z,91.82
2017-06-24T05:25:26.064Z,92.1
2017-06-24T05:26:26.407Z,92.39
2017-06-24T05:27:26.380Z,92.68
2017-06-24T05:28:26.056Z,90.76
2017-06-24T05:29:26.375Z,90
2017-06-24T05:30:26.374Z,89.23
2017-06-24T05:31:26.368Z,89.71
2017-06-24T05:32:26.044Z,88.17
2017-06-24T05:33:26.360Z,86.3
2017-06-24T05:34:26.358Z,86.3
2017-06-24T05:35:26.355Z,86.11
2017-06-24T05:36:26.354Z,86.21
2017-06-24T05:37:26.374Z,86.4
2017-06-24T05:38:26.347Z,86.01
2017-06-24T05:39:26.021Z,86.3
2017-06-24T05:40:26.342Z,86.58
2017-06-24T05:41:26.340Z,84.61
2017-06-24T05:42:26.338Z,83.94
2017-06-24T05:43:26.333Z,85
2017-06-24T05:44:26.010Z,85
2017-06-24T05:45:26.332Z,84.61
2017-06-24T05:46:26.007Z,84.33
2017-06-24T05:47:26.006Z,84.23
2017-06-24T05:48:26.325Z,84.33
2017-06-24T05:49:26.003Z,84.23
2017-06-24T05:50:26.319Z,84.23
2017-06-24T05:51:26.316Z,83.75
2017-06-24T05:52:26.315Z,82.98
2017-06-24T05:53:26.311Z,82.7
2017-06-24T05:54:25.990Z,82.89
2017-06-24T05:55:26.312Z,81.74
2017-06-24T05:56:25.985Z,81.74
2017-06-24T05:57:25.984Z,82.31
2017-06-24T05:58:25.980Z,82.89
2017-06-24T05:59:25.976Z,82.84
2017-06-24T06:00:26.299Z,81.87
2017-06-24T06:01:26.295Z,81.68
2017-06-24T06:02:26.293Z,81.97
2017-06-24T06:03:26.293Z,82.84
2017-06-24T06:04:25.968Z,83.22
2017-06-24T06:05:26.286Z,82.45
2017-06-24T06:06:25.966Z,81.78
2017-06-24T06:07:26.283Z,81.84
2017-06-24T06:08:26.292Z,82.16
2017-06-24T06:09:26.301Z,81.1
2017-06-24T06:10:26.279Z,81.68
2017-06-24T06:11:25.957Z,81.68
2017-06-24T06:12:26.298Z,81.2
2017-06-24T06:13:25.953Z,80.82
2017-06-24T06:14:25.949Z,80.15
2017-06-24T06:15:25.959Z,78.8
2017-06-24T06:16:25.946Z,79.76
2017-06-24T06:17:26.266Z,79.52
2017-06-24T06:18:25.952Z,78.65
2017-06-24T06:19:25.939Z,77.01
2017-06-24T06:20:25.948Z,77.01
2017-06-24T06:21:26.261Z,75.77
2017-06-24T06:22:25.938Z,75.87
2017-06-24T06:23:26.258Z,77.31
2017-06-24T06:24:25.936Z,76.54
2017-06-24T06:25:25.932Z,74.23
2017-06-24T06:26:26.257Z,70.9
2017-06-24T06:27:26.252Z,70.43
2017-06-24T06:28:25.928Z,70.62
2017-06-24T06:29:25.928Z,71.04
2017-06-24T06:30:25.925Z,70.98
2017-06-24T06:31:25.924Z,70.59
2017-06-24T06:32:26.244Z,68.8
2017-06-24T06:33:25.931Z,65.81
2017-06-24T06:34:26.244Z,63.99
2017-06-24T06:35:25.922Z,63.99
2017-06-24T06:36:26.245Z,64.56
2017-06-24T06:37:26.241Z,64.79
2017-06-24T06:38:26.251Z,62.87
2017-06-24T06:39:26.240Z,62.38
2017-06-24T06:40:26.241Z,63.15
2017-06-24T06:41:26.246Z,64.12
2017-06-24T06:42:25.919Z,63.09
2017-06-24T06:43:26.238Z,62.22
2017-06-24T06:44:26.241Z,62.06
2017-06-24T06:45:26.238Z,63.34
2017-06-24T06:46:26.242Z,61.99
2017-06-24T06:47:26.242Z,60.19
2017-06-24T06:48:25.917Z,58.55
2017-06-24T06:49:26.241Z,56.84
2017-06-24T06:50:25.921Z,56.74
2017-06-24T06:51:26.247Z,56.84
2017-06-24T06:52:26.258Z,58.32
2017-06-24T06:53:26.240Z,57.32
2017-06-24T06:54:25.940Z,56.84
2017-06-24T06:55:26.116Z,57.52
2017-06-24T06:56:25.926Z,57.32
2017-06-24T06:57:25.929Z,57.16
2017-06-24T06:58:26.253Z,56.2
2017-06-24T06:59:26.248Z,54.39
2017-06-24T07:00:26.252Z,53.25
2017-06-24T07:01:25.933Z,51.44
2017-06-24T07:02:26.253Z,51.28
2017-06-24T07:03:26.259Z,47.72
2017-06-24T07:04:26.259Z,46.99
2017-06-24T07:05:26.266Z,44.03
2017-06-24T07:06:26.261Z,43.01
2017-06-24T07:07:25.943Z,39.84
2017-06-24T07:08:26.273Z,36.08
2017-06-24T07:09:25.951Z,33.38
2017-06-24T07:10:25.952Z,34.33
2017-06-24T07:11:26.279Z,37.24
2017-06-24T07:12:25.961Z,38.7
2017-06-24T07:13:26.288Z,35.96
2017-06-24T07:14:26.304Z,37.02
2017-06-24T07:15:26.299Z,37.32
2017-06-24T07:16:26.299Z,38.57
2017-06-24T07:17:25.983Z,38.77
2017-06-24T07:18:26.309Z,36.15
2017-06-24T07:19:25.991Z,35.78
2017-06-24T07:20:25.997Z,36.36
2017-06-24T07:21:26.324Z,36.24
2017-06-24T07:22:26.010Z,37.6
2017-06-24T07:23:26.015Z,38.01
2017-06-24T07:24:26.020Z,35.31
2017-06-24T07:25:26.341Z,35.11
2017-06-24T07:26:26.046Z,34.74
2017-06-24T07:27:26.357Z,36.28
2017-06-24T07:28:26.368Z,35.03
2017-06-24T07:29:26.385Z,35.52
2017-06-24T07:30:26.418Z,36.28
2017-06-24T07:31:26.381Z,37.43
2017-06-24T07:32:26.390Z,38.57
2017-06-24T07:33:26.083Z,36.05
2017-06-24T07:34:26.392Z,38.31
2017-06-24T07:35:26.400Z,38.87
2017-06-24T07:36:26.104Z,39.41
2017-06-24T07:37:26.416Z,40.48
2017-06-24T07:38:26.419Z,39.88
2017-06-24T07:39:26.421Z,40.77
2017-06-24T07:40:26.434Z,42.21
2017-06-24T07:41:26.440Z,41.53
2017-06-24T07:42:26.139Z,39.59
2017-06-24T07:43:26.119Z,39.67
2017-06-24T07:44:26.151Z,41.3
2017-06-24T07:45:26.454Z,42.72
2017-06-24T07:46:26.471Z,42.17
2017-06-24T07:47:26.143Z,41.7
2017-06-24T07:48:26.470Z,40.83
2017-06-24T07:49:26.473Z,38.81
2017-06-24T07:50:26.488Z,38.44
2017-06-24T07:51:26.166Z,38.46
2017-06-24T07:52:29.394Z,40.13
2017-06-24T07:53:26.502Z,37.43
2017-06-24T07:54:26.502Z,36.08
2017-06-24T07:55:26.525Z,35.33
2017-06-24T07:56:26.515Z,36.02
2017-06-24T07:57:26.522Z,34.95
2017-06-24T07:58:26.521Z,33.59
2017-06-24T07:59:26.209Z,35.42
2017-06-24T08:00:26.536Z,37.32
2017-06-24T08:01:26.547Z,37.49
2017-06-24T08:02:26.552Z,38.91
2017-06-24T08:03:26.231Z,40.15
2017-06-24T08:04:26.235Z,40.59
2017-06-24T08:05:26.566Z,43.68
2017-06-24T08:06:26.567Z,41.64
2017-06-24T08:07:26.575Z,42.9
2017-06-24T08:08:26.577Z,43.24
2017-06-24T08:09:26.260Z,44.79
2017-06-24T08:10:26.586Z,45.16
2017-06-24T08:11:26.588Z,46.34
2017-06-24T08:12:26.594Z,43.27
2017-06-24T08:13:26.598Z,42.03
2017-06-24T08:14:26.281Z,43.17
2017-06-24T08:15:26.286Z,45.01
2017-06-24T08:16:26.290Z,44.06
2017-06-24T08:17:26.611Z,43.29
2017-06-24T08:18:26.316Z,43.77
2017-06-24T08:19:26.321Z,45.81
2017-06-24T08:20:26.634Z,46.66
2017-06-24T08:21:26.636Z,46.56
2017-06-24T08:22:26.643Z,46.09
2017-06-24T08:23:26.631Z,47.36
2017-06-24T08:24:26.314Z,43.79
2017-06-24T08:25:26.638Z,44.18
2017-06-24T08:26:26.317Z,43.99
2017-06-24T08:27:26.322Z,45.81
2017-06-24T08:28:26.323Z,46
2017-06-24T08:29:26.651Z,43.37
2017-06-24T08:30:26.671Z,45.01
2017-06-24T08:31:26.334Z,44.72
2017-06-24T08:32:26.337Z,47.02
2017-06-24T08:33:26.657Z,46.34
2017-06-24T08:34:26.359Z,45.66
2017-06-24T08:35:26.343Z,45.76
2017-06-24T08:36:26.367Z,48.18
2017-06-24T08:37:26.673Z,47.69
2017-06-24T08:38:26.689Z,48.76
2017-06-24T08:39:26.695Z,48.76
2017-06-24T08:40:26.679Z,48.76
2017-06-24T08:41:26.681Z,50.31
2017-06-24T08:42:26.686Z,46.36
2017-06-24T08:43:26.708Z,45.98
2017-06-24T08:44:26.693Z,46.67
2017-06-24T08:45:26.695Z,44.91
2017-06-24T08:46:26.697Z,46.66
2017-06-24T08:47:26.701Z,49.75
2017-06-24T08:48:26.701Z,48.3
2017-06-24T08:49:26.384Z,48.49
2017-06-24T08:50:26.406Z,48.13
2017-06-24T08:51:26.727Z,48.13
2017-06-24T08:52:26.712Z,49.87
2017-06-24T08:53:26.717Z,49.61
2017-06-24T08:54:26.719Z,48.44
2017-06-24T08:55:26.727Z,45.64
2017-06-24T08:56:26.405Z,44.06
2017-06-24T08:57:26.730Z,43.07
2017-06-24T08:58:26.413Z,45.88
2017-06-24T08:59:26.739Z,47.21
2017-06-24T09:00:26.742Z,46.15
2017-06-24T09:01:26.747Z,48.16
2017-06-24T09:02:26.424Z,49.02
2017-06-24T09:03:26.750Z,49.7
2017-06-24T09:04:26.752Z,47.11
2017-06-24T09:05:26.432Z,47.69
2017-06-24T09:06:26.468Z,49.92
2017-06-24T09:07:26.782Z,48.86
2017-06-24T09:08:26.762Z,50.02
2017-06-24T09:09:26.770Z,46.92
2017-06-24T09:10:26.775Z,48.27
2017-06-24T09:11:26.772Z,46.7
2017-06-24T09:12:26.776Z,48.44
2017-06-24T09:13:26.805Z,46.8
2017-06-24T09:14:26.780Z,46.7
2017-06-24T09:15:26.462Z,48.64
2017-06-24T09:16:26.469Z,45.83
2017-06-24T09:17:26.790Z,47.16
2017-06-24T09:18:26.797Z,47.26
2017-06-24T09:19:26.796Z,48.32
2017-06-24T09:20:26.799Z,49.99
2017-06-24T09:21:26.478Z,47.38
2017-06-24T09:22:26.482Z,47.19
2017-06-24T09:23:26.811Z,47.86
2017-06-24T09:24:26.808Z,45.93
2017-06-24T09:25:26.809Z,47.77
2017-06-24T09:26:26.816Z,48.44
2017-06-24T09:27:26.495Z,47.38
2017-06-24T09:28:26.499Z,45.25
2017-06-24T09:29:26.822Z,47.58
2017-06-24T09:30:26.824Z,46.03
2017-06-24T09:31:26.508Z,46.61
2017-06-24T09:32:26.829Z,47.77
2017-06-24T09:33:26.511Z,46.32
2017-06-24T09:34:26.832Z,46.2
2017-06-24T09:35:26.852Z,47.26
2017-06-24T09:36:26.839Z,46.78
2017-06-24T09:37:26.943Z,47.45
2017-06-24T09:38:26.844Z,51.23
2017-06-24T09:39:26.848Z,50.35
2017-06-24T09:40:26.845Z,48.03
2017-06-24T09:41:26.848Z,49.99
2017-06-24T09:42:26.853Z,51.61
2017-06-24T09:43:26.532Z,50.57
2017-06-24T09:44:26.857Z,48.54
2017-06-24T09:45:26.875Z,50.67
2017-06-24T09:46:26.861Z,48.35
2017-06-24T09:47:26.864Z,47.86
2017-06-24T09:48:26.865Z,46.9
2017-06-24T09:49:26.865Z,44.87
2017-06-24T09:50:26.869Z,44.48
2017-06-24T09:51:26.869Z,47.77
2017-06-24T09:52:26.552Z,48.54
2017-06-24T09:53:26.876Z,48.16
2017-06-24T09:54:26.569Z,45.93
2017-06-24T09:55:26.878Z,47.77
2017-06-24T09:56:26.881Z,45.74
2017-06-24T09:57:26.883Z,46.32
2017-06-24T09:58:26.890Z,46.8
2017-06-24T09:59:26.889Z,50.67
2017-06-24T10:00:26.891Z,49.12
2017-06-24T10:01:26.571Z,45.83
2017-06-24T10:02:26.908Z,46.9
2017-06-24T10:03:26.898Z,46.7
2017-06-24T10:04:26.920Z,47.09
2017-06-24T10:05:26.902Z,47.86
2017-06-24T10:06:26.910Z,48.35
2017-06-24T10:07:26.905Z,45.81
2017-06-24T10:08:26.908Z,48.61
2017-06-24T10:09:26.908Z,49.97
2017-06-24T10:10:26.914Z,47.38
2017-06-24T10:11:26.935Z,51.73
2017-06-24T10:12:26.917Z,47.38
2017-06-24T10:13:26.917Z,47.28
2017-06-24T10:14:26.920Z,46.42
2017-06-24T10:15:26.923Z,46.8
2017-06-24T10:16:26.928Z,47.38
2017-06-24T10:17:26.604Z,47.19
2017-06-24T10:18:26.939Z,46.7
2017-06-24T10:19:26.946Z,45.74
2017-06-24T10:20:26.610Z,46.32
2017-06-24T10:21:26.939Z,44.19
2017-06-24T10:22:26.942Z,44.19
2017-06-24T10:23:26.937Z,43.99
2017-06-24T10:24:26.940Z,44.67
2017-06-24T10:25:26.956Z,45.54
2017-06-24T10:26:26.624Z,45.45
2017-06-24T10:27:26.947Z,44.67
2017-06-24T10:28:26.951Z,45.45
2017-06-24T10:29:26.628Z,47.48
2017-06-24T10:30:26.975Z,46.61
2017-06-24T10:31:26.634Z,46.03
2017-06-24T10:32:26.972Z,44.87
2017-06-24T10:33:26.962Z,45.74
2017-06-24T10:34:26.639Z,45.74
2017-06-24T10:35:26.641Z,46.22
2017-06-24T10:36:26.646Z,45.16
2017-06-24T10:37:26.969Z,46.12
2017-06-24T10:38:26.967Z,45.74
2017-06-24T10:39:26.662Z,48.25
2017-06-24T10:40:26.671Z,48.74
2017-06-24T10:41:26.654Z,49.32
2017-06-24T10:42:26.977Z,44.21
2017-06-24T10:43:26.658Z,44.02
2017-06-24T10:44:26.663Z,41.89
2017-06-24T10:45:26.983Z,43.32
2017-06-24T10:46:26.986Z,43.32
2017-06-24T10:47:26.986Z,44.09
2017-06-24T10:48:26.669Z,45.16
2017-06-24T10:49:26.990Z,45.16
2017-06-24T10:50:26.997Z,44.77
2017-06-24T10:51:27.013Z,48.74
2017-06-24T10:52:26.677Z,51.25
2017-06-24T10:53:27.001Z,47.89
2017-06-24T10:54:26.698Z,45.57
2017-06-24T10:55:27.015Z,44.89
2017-06-24T10:56:26.694Z,46.05
2017-06-24T10:57:27.035Z,48.18
2017-06-24T10:58:27.011Z,48.08
2017-06-24T10:59:27.012Z,46.63
2017-06-24T11:00:27.017Z,45.95
2017-06-24T11:01:27.031Z,42.86
2017-06-24T11:02:26.699Z,40.34
2017-06-24T11:03:27.042Z,41.89
2017-06-24T11:04:27.025Z,41.99
2017-06-24T11:05:27.026Z,43.99
2017-06-24T11:06:27.032Z,43.03
2017-06-24T11:07:27.030Z,44.09
2017-06-24T11:08:27.032Z,45.28
2017-06-24T11:09:27.038Z,42.57
2017-06-24T11:10:27.037Z,38.5
2017-06-24T11:11:27.042Z,41.19
2017-06-24T11:12:26.737Z,44.19
2017-06-24T11:13:27.047Z,44.19
2017-06-24T11:14:26.724Z,43.41
2017-06-24T11:15:27.046Z,43.51
2017-06-24T11:16:26.733Z,44.48
2017-06-24T11:17:26.739Z,44.19
2017-06-24T11:18:27.057Z,43.23
2017-06-24T11:19:26.742Z,43.13
2017-06-24T11:20:27.059Z,42.07
2017-06-24T11:21:26.750Z,42.93
2017-06-24T11:22:26.763Z,42.55
2017-06-24T11:23:27.070Z,42.74
2017-06-24T11:24:26.744Z,44.09
2017-06-24T11:25:27.081Z,42.93
2017-06-24T11:26:27.069Z,42.07
2017-06-24T11:27:26.751Z,41.87
2017-06-24T11:28:27.077Z,45.64
2017-06-24T11:29:27.075Z,45.35
2017-06-24T11:30:27.080Z,42.16
2017-06-24T11:31:27.082Z,45.06
2017-06-24T11:32:26.764Z,44.38
2017-06-24T11:33:27.086Z,43.23
2017-06-24T11:34:27.087Z,45.35
2017-06-24T11:35:26.768Z,43.41
2017-06-24T11:36:26.774Z,46.12
2017-06-24T11:37:27.117Z,46.32
2017-06-24T11:38:27.096Z,45.06
2017-06-24T11:39:27.099Z,44.48
2017-06-24T11:40:26.778Z,46.51
2017-06-24T11:41:26.800Z,43.99
2017-06-24T11:42:26.784Z,42.16
2017-06-24T11:43:27.107Z,43.99
2017-06-24T11:44:26.788Z,43.61
2017-06-24T11:45:27.131Z,45.64
2017-06-24T11:46:27.131Z,45.83
2017-06-24T11:47:27.119Z,43.13
2017-06-24T11:48:27.117Z,43.03
2017-06-24T11:49:26.798Z,42.65
2017-06-24T11:50:26.799Z,44.19
2017-06-24T11:51:27.121Z,45.06
2017-06-24T11:52:27.144Z,45.83
2017-06-24T11:53:27.132Z,46.51
2017-06-24T11:54:27.127Z,46.8
2017-06-24T11:55:27.129Z,44.67
2017-06-24T11:56:26.810Z,46.32
2017-06-24T11:57:27.138Z,45.74
2017-06-24T11:58:27.136Z,45.06
2017-06-24T11:59:26.817Z,43.99
2017-06-24T12:00:26.819Z,42.93
2017-06-24T12:01:27.145Z,43.41
2017-06-24T12:02:27.161Z,44.09
2017-06-24T12:03:27.146Z,42.45
2017-06-24T12:04:27.148Z,45.35
2017-06-24T12:05:27.151Z,46.3
2017-06-24T12:06:27.161Z,45.04
2017-06-24T12:07:27.160Z,43.13
2017-06-24T12:08:27.156Z,45.16
2017-06-24T12:09:26.838Z,44.19
2017-06-24T12:10:27.142Z,43.51
2017-06-24T12:11:27.177Z,45.23
2017-06-24T12:12:27.184Z,45.14
2017-06-24T12:13:26.867Z,45.52
2017-06-24T12:14:27.172Z,45.52
2017-06-24T12:15:27.173Z,45.23
2017-06-24T12:16:26.854Z,47.07
2017-06-24T12:17:26.854Z,48.03
2017-06-24T12:18:26.854Z,44.36
2017-06-24T12:19:27.182Z,44.09
2017-06-24T12:20:27.183Z,46
2017-06-24T12:21:27.185Z,45.04
2017-06-24T12:22:27.183Z,46.1
2017-06-24T12:23:26.866Z,45.52
2017-06-24T12:24:26.869Z,46.78
2017-06-24T12:25:27.192Z,46.88
2017-06-24T12:26:26.871Z,44.75
2017-06-24T12:27:27.197Z,44.09
2017-06-24T12:28:27.199Z,45.72
2017-06-24T12:29:27.197Z,47.55
2017-06-24T12:30:27.206Z,47.28
2017-06-24T12:31:26.883Z,48.64
2017-06-24T12:32:26.934Z,46.32
2017-06-24T12:33:26.885Z,45.83
2017-06-24T12:34:27.208Z,44.57
2017-06-24T12:35:27.213Z,44.87
2017-06-24T12:36:27.213Z,45.45
2017-06-24T12:37:27.218Z,43.99
2017-06-24T12:38:26.902Z,43.9
2017-06-24T12:39:26.897Z,45.25
2017-06-24T12:40:27.223Z,45.83
2017-06-24T12:41:27.225Z,47.65
2017-06-24T12:42:27.232Z,43.99
2017-06-24T12:43:27.238Z,44.96
2017-06-24T12:44:27.228Z,44.38
2017-06-24T12:45:27.253Z,45.25
2017-06-24T12:46:27.234Z,45.16
2017-06-24T12:47:27.235Z,44.5
2017-06-24T12:48:26.914Z,44.5
2017-06-24T12:49:27.245Z,44.12
2017-06-24T12:50:27.243Z,41.6
2017-06-24T12:51:27.246Z,41.6
2017-06-24T12:52:27.246Z,43.24
2017-06-24T12:53:27.249Z,44.12
2017-06-24T12:54:26.928Z,42.08